sensor_id;sensor_type;location;lat;lon;timestamp;P1;durP1;ratioP1;P2;durP2;ratioP2
20417;SDS011;10368;51.436;6.774;2022-09-16T00:01:13;4.33;;;1.70;;
20417;SDS011;10368;51.436;6.774;2022-09-16T00:03:45;3.37;;;1.30;;
20417;SDS011;10368;51.436;6.774;2022-09-16T00:06:22;5.63;;;1.40;;
20417;SDS011;10368;51.436;6.774;2022-09-16T00:08:56;8.83;;;1.43;;
20417;SDS011;10368;51.436;6.774;2022-09-16T00:11:26;4.00;;;1.80;;
20417;SDS011;10368;51.436;6.774;2022-09-16T00:13:56;3.13;;;1.70;;
20417;SDS011;10368;51.436;6.774;2022-09-16T00:16:24;3.47;;;1.57;;
20417;SDS011;10368;51.436;6.774;2022-09-16T00:18:54;2.50;;;1.40;;
20417;SDS011;10368;51.436;6.774;2022-09-16T00:21:23;3.70;;;1.53;;
20417;SDS011;10368;51.436;6.774;2022-09-16T00:23:52;6.87;;;1.50;;
20417;SDS011;10368;51.436;6.774;2022-09-16T00:26:20;9.33;;;1.63;;
20417;SDS011;10368;51.436;6.774;2022-09-16T00:28:48;3.73;;;1.27;;
20417;SDS011;10368;51.436;6.774;2022-09-16T00:31:18;5.30;;;1.43;;
20417;SDS011;10368;51.436;6.774;2022-09-16T00:33:46;5.60;;;1.40;;
20417;SDS011;10368;51.436;6.774;2022-09-16T00:36:17;2.93;;;1.07;;
20417;SDS011;10368;51.436;6.774;2022-09-16T00:38:52;3.53;;;1.37;;
20417;SDS011;10368;51.436;6.774;2022-09-16T00:41:28;4.17;;;1.90;;
20417;SDS011;10368;51.436;6.774;2022-09-16T00:44:00;6.13;;;1.80;;
20417;SDS011;10368;51.436;6.774;2022-09-16T00:46:45;3.63;;;1.30;;
20417;SDS011;10368;51.436;6.774;2022-09-16T00:49:19;4.10;;;1.37;;
20417;SDS011;10368;51.436;6.774;2022-09-16T00:51:53;3.23;;;1.40;;
20417;SDS011;10368;51.436;6.774;2022-09-16T00:54:24;4.37;;;1.50;;
20417;SDS011;10368;51.436;6.774;2022-09-16T00:56:52;5.33;;;1.10;;
20417;SDS011;10368;51.436;6.774;2022-09-16T00:59:23;6.50;;;1.50;;
20417;SDS011;10368;51.436;6.774;2022-09-16T01:01:55;12.60;;;1.60;;
20417;SDS011;10368;51.436;6.774;2022-09-16T01:04:27;3.60;;;1.43;;
20417;SDS011;10368;51.436;6.774;2022-09-16T01:06:55;2.97;;;1.10;;
20417;SDS011;10368;51.436;6.774;2022-09-16T01:09:24;3.90;;;1.37;;
20417;SDS011;10368;51.436;6.774;2022-09-16T01:11:53;4.57;;;1.37;;
20417;SDS011;10368;51.436;6.774;2022-09-16T01:14:22;7.50;;;1.50;;
20417;SDS011;10368;51.436;6.774;2022-09-16T01:36:02;3.03;;;1.33;;
20417;SDS011;10368;51.436;6.774;2022-09-16T01:38:39;5.07;;;1.20;;
20417;SDS011;10368;51.436;6.774;2022-09-16T01:44:02;3.53;;;1.27;;
20417;SDS011;10368;51.436;6.774;2022-09-16T01:49:12;3.70;;;1.17;;
20417;SDS011;10368;51.436;6.774;2022-09-16T01:51:52;6.03;;;1.27;;
20417;SDS011;10368;51.436;6.774;2022-09-16T01:54:30;2.70;;;1.03;;
20417;SDS011;10368;51.436;6.774;2022-09-16T01:57:06;3.07;;;1.10;;
20417;SDS011;10368;51.436;6.774;2022-09-16T01:59:39;2.00;;;0.90;;
20417;SDS011;10368;51.436;6.774;2022-09-16T02:02:19;4.90;;;1.40;;
20417;SDS011;10368;51.436;6.774;2022-09-16T02:04:53;2.57;;;1.10;;
20417;SDS011;10368;51.436;6.774;2022-09-16T02:07:30;4.53;;;1.10;;
20417;SDS011;10368;51.436;6.774;2022-09-16T02:10:01;2.87;;;1.20;;
20417;SDS011;10368;51.436;6.774;2022-09-16T02:12:34;2.87;;;1.40;;
20417;SDS011;10368;51.436;6.774;2022-09-16T02:15:05;3.67;;;1.30;;
20417;SDS011;10368;51.436;6.774;2022-09-16T02:17:35;5.10;;;1.23;;
20417;SDS011;10368;51.436;6.774;2022-09-16T02:20:07;6.23;;;1.50;;
20417;SDS011;10368;51.436;6.774;2022-09-16T02:22:38;3.47;;;1.33;;
20417;SDS011;10368;51.436;6.774;2022-09-16T02:25:07;5.13;;;1.10;;
20417;SDS011;10368;51.436;6.774;2022-09-16T02:27:36;3.97;;;1.30;;
20417;SDS011;10368;51.436;6.774;2022-09-16T02:30:08;2.57;;;1.27;;
20417;SDS011;10368;51.436;6.774;2022-09-16T02:32:38;4.63;;;1.83;;
20417;SDS011;10368;51.436;6.774;2022-09-16T02:35:17;3.43;;;1.30;;
20417;SDS011;10368;51.436;6.774;2022-09-16T02:37:52;1.93;;;1.40;;
20417;SDS011;10368;51.436;6.774;2022-09-16T02:42:56;3.93;;;1.33;;
20417;SDS011;10368;51.436;6.774;2022-09-16T02:45:29;3.47;;;1.40;;
20417;SDS011;10368;51.436;6.774;2022-09-16T02:48:04;3.17;;;1.40;;
20417;SDS011;10368;51.436;6.774;2022-09-16T02:50:42;3.60;;;1.50;;
20417;SDS011;10368;51.436;6.774;2022-09-16T02:53:14;6.40;;;1.30;;
20417;SDS011;10368;51.436;6.774;2022-09-16T02:56:10;3.23;;;1.10;;
20417;SDS011;10368;51.436;6.774;2022-09-16T02:58:41;3.83;;;1.57;;
20417;SDS011;10368;51.436;6.774;2022-09-16T03:01:10;4.83;;;1.30;;
20417;SDS011;10368;51.436;6.774;2022-09-16T03:03:40;1.80;;;1.70;;
20417;SDS011;10368;51.436;6.774;2022-09-16T03:08:36;7.47;;;3.07;;
20417;SDS011;10368;51.436;6.774;2022-09-16T03:11:09;6.47;;;3.20;;
20417;SDS011;10368;51.436;6.774;2022-09-16T03:13:45;11.43;;;3.93;;
20417;SDS011;10368;51.436;6.774;2022-09-16T03:16:19;9.17;;;3.33;;
20417;SDS011;10368;51.436;6.774;2022-09-16T03:21:28;6.70;;;3.17;;
20417;SDS011;10368;51.436;6.774;2022-09-16T03:26:33;9.07;;;2.90;;
20417;SDS011;10368;51.436;6.774;2022-09-16T03:34:34;5.23;;;2.33;;
20417;SDS011;10368;51.436;6.774;2022-09-16T03:37:06;6.17;;;2.10;;
20417;SDS011;10368;51.436;6.774;2022-09-16T03:39:35;4.87;;;2.10;;
20417;SDS011;10368;51.436;6.774;2022-09-16T03:42:06;6.43;;;2.23;;
20417;SDS011;10368;51.436;6.774;2022-09-16T03:44:37;7.13;;;2.50;;
20417;SDS011;10368;51.436;6.774;2022-09-16T03:47:06;7.43;;;2.17;;
20417;SDS011;10368;51.436;6.774;2022-09-16T03:49:33;6.70;;;1.77;;
20417;SDS011;10368;51.436;6.774;2022-09-16T03:52:02;8.67;;;1.70;;
20417;SDS011;10368;51.436;6.774;2022-09-16T03:54:37;8.53;;;1.93;;
20417;SDS011;10368;51.436;6.774;2022-09-16T03:57:04;6.20;;;2.07;;
20417;SDS011;10368;51.436;6.774;2022-09-16T03:59:32;5.80;;;1.77;;
20417;SDS011;10368;51.436;6.774;2022-09-16T04:02:08;6.80;;;1.80;;
20417;SDS011;10368;51.436;6.774;2022-09-16T04:04:36;5.07;;;2.23;;
20417;SDS011;10368;51.436;6.774;2022-09-16T04:07:03;8.37;;;1.87;;
20417;SDS011;10368;51.436;6.774;2022-09-16T04:09:31;6.50;;;1.10;;
20417;SDS011;10368;51.436;6.774;2022-09-16T04:11:58;5.10;;;1.63;;
20417;SDS011;10368;51.436;6.774;2022-09-16T04:14:26;3.23;;;1.60;;
20417;SDS011;10368;51.436;6.774;2022-09-16T04:16:58;3.37;;;1.60;;
20417;SDS011;10368;51.436;6.774;2022-09-16T04:19:27;5.63;;;1.70;;
20417;SDS011;10368;51.436;6.774;2022-09-16T04:21:54;5.60;;;2.20;;
20417;SDS011;10368;51.436;6.774;2022-09-16T04:24:21;6.03;;;1.80;;
20417;SDS011;10368;51.436;6.774;2022-09-16T04:26:49;3.60;;;2.00;;
20417;SDS011;10368;51.436;6.774;2022-09-16T04:29:17;15.37;;;2.93;;
20417;SDS011;10368;51.436;6.774;2022-09-16T04:31:44;6.73;;;2.03;;
20417;SDS011;10368;51.436;6.774;2022-09-16T04:34:16;5.03;;;1.77;;
20417;SDS011;10368;51.436;6.774;2022-09-16T04:36:53;4.90;;;1.63;;
20417;SDS011;10368;51.436;6.774;2022-09-16T04:39:27;5.63;;;2.10;;
20417;SDS011;10368;51.436;6.774;2022-09-16T04:41:55;7.60;;;2.20;;
20417;SDS011;10368;51.436;6.774;2022-09-16T04:44:26;4.50;;;1.73;;
20417;SDS011;10368;51.436;6.774;2022-09-16T04:46:55;6.23;;;2.03;;
20417;SDS011;10368;51.436;6.774;2022-09-16T04:49:22;3.30;;;2.13;;
20417;SDS011;10368;51.436;6.774;2022-09-16T04:51:51;6.13;;;2.27;;
20417;SDS011;10368;51.436;6.774;2022-09-16T04:54:21;4.13;;;2.00;;
20417;SDS011;10368;51.436;6.774;2022-09-16T04:56:48;5.20;;;1.70;;
20417;SDS011;10368;51.436;6.774;2022-09-16T04:59:16;4.13;;;1.87;;
20417;SDS011;10368;51.436;6.774;2022-09-16T05:01:46;8.53;;;1.97;;
20417;SDS011;10368;51.436;6.774;2022-09-16T05:04:14;3.50;;;1.83;;
20417;SDS011;10368;51.436;6.774;2022-09-16T05:06:42;6.90;;;1.97;;
20417;SDS011;10368;51.436;6.774;2022-09-16T05:09:12;3.10;;;1.80;;
20417;SDS011;10368;51.436;6.774;2022-09-16T05:11:41;7.97;;;1.63;;
20417;SDS011;10368;51.436;6.774;2022-09-16T05:14:11;6.40;;;2.40;;
20417;SDS011;10368;51.436;6.774;2022-09-16T05:16:39;11.00;;;2.10;;
20417;SDS011;10368;51.436;6.774;2022-09-16T05:19:07;8.07;;;2.77;;
20417;SDS011;10368;51.436;6.774;2022-09-16T05:21:35;8.43;;;2.80;;
20417;SDS011;10368;51.436;6.774;2022-09-16T05:24:03;7.30;;;3.10;;
20417;SDS011;10368;51.436;6.774;2022-09-16T05:26:34;4.63;;;2.17;;
20417;SDS011;10368;51.436;6.774;2022-09-16T05:29:03;6.57;;;2.70;;
20417;SDS011;10368;51.436;6.774;2022-09-16T05:31:32;6.53;;;2.83;;
20417;SDS011;10368;51.436;6.774;2022-09-16T05:36:36;5.23;;;2.80;;
20417;SDS011;10368;51.436;6.774;2022-09-16T05:39:06;9.57;;;2.90;;
20417;SDS011;10368;51.436;6.774;2022-09-16T05:41:49;5.07;;;3.20;;
20417;SDS011;10368;51.436;6.774;2022-09-16T05:44:18;5.93;;;3.13;;
20417;SDS011;10368;51.436;6.774;2022-09-16T05:46:45;6.97;;;3.13;;
20417;SDS011;10368;51.436;6.774;2022-09-16T05:49:13;7.57;;;3.63;;
20417;SDS011;10368;51.436;6.774;2022-09-16T05:51:46;7.63;;;3.27;;
20417;SDS011;10368;51.436;6.774;2022-09-16T05:54:14;19.23;;;3.93;;
20417;SDS011;10368;51.436;6.774;2022-09-16T05:56:45;11.93;;;3.60;;
20417;SDS011;10368;51.436;6.774;2022-09-16T05:59:17;10.13;;;3.53;;
20417;SDS011;10368;51.436;6.774;2022-09-16T06:01:49;7.53;;;2.90;;
20417;SDS011;10368;51.436;6.774;2022-09-16T06:04:16;10.70;;;3.27;;
20417;SDS011;10368;51.436;6.774;2022-09-16T06:06:44;8.40;;;3.17;;
20417;SDS011;10368;51.436;6.774;2022-09-16T06:09:13;9.10;;;4.07;;
20417;SDS011;10368;51.436;6.774;2022-09-16T06:11:42;11.73;;;4.10;;
20417;SDS011;10368;51.436;6.774;2022-09-16T06:14:10;10.10;;;4.23;;
20417;SDS011;10368;51.436;6.774;2022-09-16T06:16:38;8.30;;;3.90;;
20417;SDS011;10368;51.436;6.774;2022-09-16T06:19:06;5.50;;;3.77;;
20417;SDS011;10368;51.436;6.774;2022-09-16T06:21:36;13.90;;;3.87;;
20417;SDS011;10368;51.436;6.774;2022-09-16T06:24:04;8.20;;;3.63;;
20417;SDS011;10368;51.436;6.774;2022-09-16T06:26:39;4.33;;;3.93;;
20417;SDS011;10368;51.436;6.774;2022-09-16T06:29:06;5.57;;;3.63;;
20417;SDS011;10368;51.436;6.774;2022-09-16T06:31:34;5.20;;;2.90;;
20417;SDS011;10368;51.436;6.774;2022-09-16T06:34:03;6.73;;;3.70;;
20417;SDS011;10368;51.436;6.774;2022-09-16T06:36:31;7.97;;;3.63;;
20417;SDS011;10368;51.436;6.774;2022-09-16T06:38:59;4.77;;;3.30;;
20417;SDS011;10368;51.436;6.774;2022-09-16T06:41:27;5.03;;;3.30;;
20417;SDS011;10368;51.436;6.774;2022-09-16T06:43:54;5.63;;;3.63;;
20417;SDS011;10368;51.436;6.774;2022-09-16T06:46:22;5.40;;;3.50;;
20417;SDS011;10368;51.436;6.774;2022-09-16T06:48:53;8.83;;;3.60;;
20417;SDS011;10368;51.436;6.774;2022-09-16T06:51:30;6.10;;;3.83;;
20417;SDS011;10368;51.436;6.774;2022-09-16T06:53:59;8.53;;;3.13;;
20417;SDS011;10368;51.436;6.774;2022-09-16T06:56:27;7.20;;;3.80;;
20417;SDS011;10368;51.436;6.774;2022-09-16T06:58:54;5.80;;;3.37;;
20417;SDS011;10368;51.436;6.774;2022-09-16T07:01:23;6.33;;;3.60;;
20417;SDS011;10368;51.436;6.774;2022-09-16T07:03:51;6.90;;;3.17;;
20417;SDS011;10368;51.436;6.774;2022-09-16T07:06:20;7.13;;;2.87;;
20417;SDS011;10368;51.436;6.774;2022-09-16T07:09:03;8.17;;;3.30;;
20417;SDS011;10368;51.436;6.774;2022-09-16T07:11:30;6.17;;;3.07;;
20417;SDS011;10368;51.436;6.774;2022-09-16T07:13:58;5.20;;;2.77;;
20417;SDS011;10368;51.436;6.774;2022-09-16T07:16:25;6.13;;;3.10;;
20417;SDS011;10368;51.436;6.774;2022-09-16T07:18:53;4.40;;;2.40;;
20417;SDS011;10368;51.436;6.774;2022-09-16T07:21:26;8.73;;;3.20;;
20417;SDS011;10368;51.436;6.774;2022-09-16T07:23:56;5.07;;;2.77;;
20417;SDS011;10368;51.436;6.774;2022-09-16T07:26:25;4.23;;;2.67;;
20417;SDS011;10368;51.436;6.774;2022-09-16T07:28:53;6.50;;;2.90;;
20417;SDS011;10368;51.436;6.774;2022-09-16T07:31:22;3.63;;;2.00;;
20417;SDS011;10368;51.436;6.774;2022-09-16T07:33:51;3.33;;;2.43;;
20417;SDS011;10368;51.436;6.774;2022-09-16T07:36:20;6.57;;;3.00;;
20417;SDS011;10368;51.436;6.774;2022-09-16T07:38:48;3.63;;;2.43;;
20417;SDS011;10368;51.436;6.774;2022-09-16T07:41:27;7.07;;;2.83;;
20417;SDS011;10368;51.436;6.774;2022-09-16T07:43:55;4.87;;;3.03;;
20417;SDS011;10368;51.436;6.774;2022-09-16T07:46:25;3.77;;;2.63;;
20417;SDS011;10368;51.436;6.774;2022-09-16T07:48:52;4.00;;;2.30;;
20417;SDS011;10368;51.436;6.774;2022-09-16T07:51:21;5.30;;;3.13;;
20417;SDS011;10368;51.436;6.774;2022-09-16T07:53:52;2.90;;;2.33;;
20417;SDS011;10368;51.436;6.774;2022-09-16T07:56:20;4.10;;;2.20;;
20417;SDS011;10368;51.436;6.774;2022-09-16T07:58:51;6.30;;;2.30;;
20417;SDS011;10368;51.436;6.774;2022-09-16T08:01:18;7.93;;;3.43;;
20417;SDS011;10368;51.436;6.774;2022-09-16T08:03:46;5.07;;;2.10;;
20417;SDS011;10368;51.436;6.774;2022-09-16T08:06:14;9.00;;;2.43;;
20417;SDS011;10368;51.436;6.774;2022-09-16T08:08:42;5.20;;;1.80;;
20417;SDS011;10368;51.436;6.774;2022-09-16T08:11:11;3.37;;;2.00;;
20417;SDS011;10368;51.436;6.774;2022-09-16T08:13:40;2.37;;;1.83;;
20417;SDS011;10368;51.436;6.774;2022-09-16T08:16:09;4.40;;;2.10;;
20417;SDS011;10368;51.436;6.774;2022-09-16T08:18:36;4.93;;;2.03;;
20417;SDS011;10368;51.436;6.774;2022-09-16T08:21:04;4.37;;;1.80;;
20417;SDS011;10368;51.436;6.774;2022-09-16T08:23:33;4.00;;;1.40;;
20417;SDS011;10368;51.436;6.774;2022-09-16T08:26:01;2.17;;;1.10;;
20417;SDS011;10368;51.436;6.774;2022-09-16T08:28:29;2.40;;;1.10;;
20417;SDS011;10368;51.436;6.774;2022-09-16T08:31:17;2.83;;;1.57;;
20417;SDS011;10368;51.436;6.774;2022-09-16T08:33:45;4.37;;;1.20;;
20417;SDS011;10368;51.436;6.774;2022-09-16T08:36:16;1.40;;;1.10;;
20417;SDS011;10368;51.436;6.774;2022-09-16T08:38:45;3.10;;;1.10;;
20417;SDS011;10368;51.436;6.774;2022-09-16T08:49:35;7.57;;;1.30;;
20417;SDS011;10368;51.436;6.774;2022-09-16T08:52:10;2.73;;;1.00;;
20417;SDS011;10368;51.436;6.774;2022-09-16T08:57:07;2.17;;;0.70;;
20417;SDS011;10368;51.436;6.774;2022-09-16T08:59:39;5.20;;;0.80;;
20417;SDS011;10368;51.436;6.774;2022-09-16T09:02:18;5.38;;;0.82;;
20417;SDS011;10368;51.436;6.774;2022-09-16T09:04:48;2.90;;;0.80;;
20417;SDS011;10368;51.436;6.774;2022-09-16T09:07:26;2.63;;;0.90;;
20417;SDS011;10368;51.436;6.774;2022-09-16T09:10:09;2.97;;;1.10;;
20417;SDS011;10368;51.436;6.774;2022-09-16T09:25:51;1.70;;;0.77;;
20417;SDS011;10368;51.436;6.774;2022-09-16T09:31:14;4.03;;;1.27;;
20417;SDS011;10368;51.436;6.774;2022-09-16T09:36:38;6.43;;;0.95;;
20417;SDS011;10368;51.436;6.774;2022-09-16T09:39:10;3.92;;;0.60;;
20417;SDS011;10368;51.436;6.774;2022-09-16T09:41:41;3.10;;;0.70;;
20417;SDS011;10368;51.436;6.774;2022-09-16T09:47:00;2.65;;;0.52;;
20417;SDS011;10368;51.436;6.774;2022-09-16T09:52:00;0.82;;;0.40;;
20417;SDS011;10368;51.436;6.774;2022-09-16T09:54:34;3.70;;;0.70;;
20417;SDS011;10368;51.436;6.774;2022-09-16T09:57:05;1.92;;;0.80;;
20417;SDS011;10368;51.436;6.774;2022-09-16T10:02:09;7.55;;;0.88;;
20417;SDS011;10368;51.436;6.774;2022-09-16T10:04:39;1.75;;;0.85;;
20417;SDS011;10368;51.436;6.774;2022-09-16T10:07:06;5.75;;;1.20;;
20417;SDS011;10368;51.436;6.774;2022-09-16T10:09:35;3.10;;;0.90;;
20417;SDS011;10368;51.436;6.774;2022-09-16T10:12:02;2.80;;;0.70;;
20417;SDS011;10368;51.436;6.774;2022-09-16T10:17:01;2.80;;;0.60;;
20417;SDS011;10368;51.436;6.774;2022-09-16T10:20:28;2.38;;;0.80;;
20417;SDS011;10368;51.436;6.774;2022-09-16T10:22:23;5.10;;;0.68;;
20417;SDS011;10368;51.436;6.774;2022-09-16T10:24:55;4.32;;;1.10;;
20417;SDS011;10368;51.436;6.774;2022-09-16T10:30:03;1.45;;;0.90;;
20417;SDS011;10368;51.436;6.774;2022-09-16T10:32:31;1.83;;;0.70;;
20417;SDS011;10368;51.436;6.774;2022-09-16T10:35:04;2.53;;;0.60;;
20417;SDS011;10368;51.436;6.774;2022-09-16T10:37:32;3.15;;;1.00;;
20417;SDS011;10368;51.436;6.774;2022-09-16T10:39:59;5.35;;;1.02;;
20417;SDS011;10368;51.436;6.774;2022-09-16T10:42:28;3.50;;;0.60;;
20417;SDS011;10368;51.436;6.774;2022-09-16T10:45:07;2.97;;;0.90;;
20417;SDS011;10368;51.436;6.774;2022-09-16T10:47:36;3.30;;;0.77;;
20417;SDS011;10368;51.436;6.774;2022-09-16T10:50:04;3.13;;;0.75;;
20417;SDS011;10368;51.436;6.774;2022-09-16T10:52:40;4.25;;;1.15;;
20417;SDS011;10368;51.436;6.774;2022-09-16T10:55:19;3.20;;;0.55;;
20417;SDS011;10368;51.436;6.774;2022-09-16T10:57:47;4.07;;;0.90;;
20417;SDS011;10368;51.436;6.774;2022-09-16T11:00:22;2.35;;;0.75;;
20417;SDS011;10368;51.436;6.774;2022-09-16T11:10:42;5.88;;;0.70;;
20417;SDS011;10368;51.436;6.774;2022-09-16T11:18:50;4.25;;;1.00;;
20417;SDS011;10368;51.436;6.774;2022-09-16T11:24:04;6.13;;;1.20;;
20417;SDS011;10368;51.436;6.774;2022-09-16T11:26:44;2.20;;;0.93;;
20417;SDS011;10368;51.436;6.774;2022-09-16T11:32:12;2.40;;;0.80;;
20417;SDS011;10368;51.436;6.774;2022-09-16T11:47:36;2.07;;;1.00;;
20417;SDS011;10368;51.436;6.774;2022-09-16T11:52:40;3.23;;;1.20;;
20417;SDS011;10368;51.436;6.774;2022-09-16T11:55:26;3.05;;;1.20;;
20417;SDS011;10368;51.436;6.774;2022-09-16T11:57:59;3.75;;;1.27;;
20417;SDS011;10368;51.436;6.774;2022-09-16T12:00:28;3.70;;;1.10;;
20417;SDS011;10368;51.436;6.774;2022-09-16T12:05:39;3.80;;;0.90;;
20417;SDS011;10368;51.436;6.774;2022-09-16T12:10:42;5.18;;;0.73;;
20417;SDS011;10368;51.436;6.774;2022-09-16T12:13:15;3.40;;;1.15;;
20417;SDS011;10368;51.436;6.774;2022-09-16T12:15:47;1.73;;;0.77;;
20417;SDS011;10368;51.436;6.774;2022-09-16T12:18:24;2.58;;;0.77;;
20417;SDS011;10368;51.436;6.774;2022-09-16T12:21:04;1.92;;;0.70;;
20417;SDS011;10368;51.436;6.774;2022-09-16T12:23:35;4.13;;;0.80;;
20417;SDS011;10368;51.436;6.774;2022-09-16T12:28:34;1.55;;;0.70;;
20417;SDS011;10368;51.436;6.774;2022-09-16T12:31:17;1.98;;;0.80;;
20417;SDS011;10368;51.436;6.774;2022-09-16T12:34:00;3.47;;;1.00;;
20417;SDS011;10368;51.436;6.774;2022-09-16T12:36:32;2.42;;;1.05;;
20417;SDS011;10368;51.436;6.774;2022-09-16T12:39:01;3.90;;;1.02;;
20417;SDS011;10368;51.436;6.774;2022-09-16T12:46:58;2.67;;;0.95;;
20417;SDS011;10368;51.436;6.774;2022-09-16T12:58:12;1.75;;;0.60;;
20417;SDS011;10368;51.436;6.774;2022-09-16T13:00:38;3.13;;;1.70;;
20417;SDS011;10368;51.436;6.774;2022-09-16T13:03:26;3.47;;;0.70;;
20417;SDS011;10368;51.436;6.774;2022-09-16T13:05:57;2.35;;;0.80;;
20417;SDS011;10368;51.436;6.774;2022-09-16T13:08:31;3.60;;;0.90;;
20417;SDS011;10368;51.436;6.774;2022-09-16T13:11:04;4.40;;;0.90;;
20417;SDS011;10368;51.436;6.774;2022-09-16T13:13:55;3.65;;;0.80;;
20417;SDS011;10368;51.436;6.774;2022-09-16T13:16:31;1.77;;;0.75;;
20417;SDS011;10368;51.436;6.774;2022-09-16T13:21:47;1.33;;;0.80;;
20417;SDS011;10368;51.436;6.774;2022-09-16T13:27:00;1.73;;;1.00;;
20417;SDS011;10368;51.436;6.774;2022-09-16T13:32:03;1.30;;;1.13;;
20417;SDS011;10368;51.436;6.774;2022-09-16T13:34:30;4.15;;;1.77;;
20417;SDS011;10368;51.436;6.774;2022-09-16T13:36:57;3.22;;;1.10;;
20417;SDS011;10368;51.436;6.774;2022-09-16T13:39:27;1.55;;;1.35;;
20417;SDS011;10368;51.436;6.774;2022-09-16T13:42:09;1.05;;;0.73;;
20417;SDS011;10368;51.436;6.774;2022-09-16T13:44:43;2.70;;;1.15;;
20417;SDS011;10368;51.436;6.774;2022-09-16T13:49:50;3.80;;;1.63;;
20417;SDS011;10368;51.436;6.774;2022-09-16T13:54:55;3.42;;;1.50;;
20417;SDS011;10368;51.436;6.774;2022-09-16T13:57:45;7.78;;;1.20;;
20417;SDS011;10368;51.436;6.774;2022-09-16T14:05:57;2.15;;;0.70;;
20417;SDS011;10368;51.436;6.774;2022-09-16T14:11:36;2.08;;;0.75;;
20417;SDS011;10368;51.436;6.774;2022-09-16T14:14:21;4.32;;;0.93;;
20417;SDS011;10368;51.436;6.774;2022-09-16T14:17:54;0.43;;;0.43;;
20417;SDS011;10368;51.436;6.774;2022-09-16T14:20:09;0.70;;;0.60;;
20417;SDS011;10368;51.436;6.774;2022-09-16T14:22:42;0.80;;;0.50;;
20417;SDS011;10368;51.436;6.774;2022-09-16T14:25:25;1.15;;;0.63;;
20417;SDS011;10368;51.436;6.774;2022-09-16T14:28:15;0.88;;;0.60;;
20417;SDS011;10368;51.436;6.774;2022-09-16T14:30:49;0.95;;;0.60;;
20417;SDS011;10368;51.436;6.774;2022-09-16T14:33:35;1.35;;;0.50;;
20417;SDS011;10368;51.436;6.774;2022-09-16T14:36:28;2.25;;;0.93;;
20417;SDS011;10368;51.436;6.774;2022-09-16T14:41:40;1.50;;;0.70;;
20417;SDS011;10368;51.436;6.774;2022-09-16T14:44:20;0.70;;;0.50;;
20417;SDS011;10368;51.436;6.774;2022-09-16T14:50:14;3.80;;;2.97;;
20417;SDS011;10368;51.436;6.774;2022-09-16T14:52:55;3.25;;;1.10;;
20417;SDS011;10368;51.436;6.774;2022-09-16T14:55:31;5.55;;;1.17;;
20417;SDS011;10368;51.436;6.774;2022-09-16T14:58:01;3.60;;;0.85;;
20417;SDS011;10368;51.436;6.774;2022-09-16T15:00:30;4.45;;;1.08;;
20417;SDS011;10368;51.436;6.774;2022-09-16T15:06:06;2.67;;;1.20;;
20417;SDS011;10368;51.436;6.774;2022-09-16T15:08:45;3.88;;;1.27;;
20417;SDS011;10368;51.436;6.774;2022-09-16T15:11:20;2.95;;;1.00;;
20417;SDS011;10368;51.436;6.774;2022-09-16T15:14:12;2.45;;;1.10;;
20417;SDS011;10368;51.436;6.774;2022-09-16T15:16:40;2.65;;;0.88;;
20417;SDS011;10368;51.436;6.774;2022-09-16T15:19:15;6.07;;;1.15;;
20417;SDS011;10368;51.436;6.774;2022-09-16T15:21:46;4.18;;;1.33;;
20417;SDS011;10368;51.436;6.774;2022-09-16T15:24:15;3.45;;;1.80;;
20417;SDS011;10368;51.436;6.774;2022-09-16T15:26:47;2.75;;;1.35;;
20417;SDS011;10368;51.436;6.774;2022-09-16T15:31:44;3.70;;;1.10;;
20417;SDS011;10368;51.436;6.774;2022-09-16T15:36:51;5.78;;;1.02;;
20417;SDS011;10368;51.436;6.774;2022-09-16T15:39:29;2.78;;;1.23;;
20417;SDS011;10368;51.436;6.774;2022-09-16T15:42:10;4.70;;;1.00;;
20417;SDS011;10368;51.436;6.774;2022-09-16T15:47:19;4.38;;;1.33;;
20417;SDS011;10368;51.436;6.774;2022-09-16T15:49:48;4.43;;;1.08;;
20417;SDS011;10368;51.436;6.774;2022-09-16T15:52:30;1.77;;;0.80;;
20417;SDS011;10368;51.436;6.774;2022-09-16T15:55:00;6.63;;;1.30;;
20417;SDS011;10368;51.436;6.774;2022-09-16T15:57:31;3.47;;;1.33;;
20417;SDS011;10368;51.436;6.774;2022-09-16T16:00:14;1.90;;;0.88;;
20417;SDS011;10368;51.436;6.774;2022-09-16T16:02:49;3.63;;;1.42;;
20417;SDS011;10368;51.436;6.774;2022-09-16T16:05:20;3.15;;;1.17;;
20417;SDS011;10368;51.436;6.774;2022-09-16T16:07:54;5.55;;;1.20;;
20417;SDS011;10368;51.436;6.774;2022-09-16T16:10:26;5.53;;;1.42;;
20417;SDS011;10368;51.436;6.774;2022-09-16T16:12:56;3.45;;;1.00;;
20417;SDS011;10368;51.436;6.774;2022-09-16T16:15:35;0.63;;;0.63;;
20417;SDS011;10368;51.436;6.774;2022-09-16T16:18:05;6.53;;;1.60;;
20417;SDS011;10368;51.436;6.774;2022-09-16T16:20:33;3.17;;;1.23;;
20417;SDS011;10368;51.436;6.774;2022-09-16T16:23:02;4.22;;;1.00;;
20417;SDS011;10368;51.436;6.774;2022-09-16T16:25:29;4.13;;;1.20;;
20417;SDS011;10368;51.436;6.774;2022-09-16T16:27:56;3.38;;;1.10;;
20417;SDS011;10368;51.436;6.774;2022-09-16T16:30:23;3.83;;;0.90;;
20417;SDS011;10368;51.436;6.774;2022-09-16T16:32:49;4.07;;;1.08;;
20417;SDS011;10368;51.436;6.774;2022-09-16T16:35:17;3.08;;;1.23;;
20417;SDS011;10368;51.436;6.774;2022-09-16T16:37:43;5.70;;;2.67;;
20417;SDS011;10368;51.436;6.774;2022-09-16T16:40:12;1.42;;;0.90;;
20417;SDS011;10368;51.436;6.774;2022-09-16T16:42:40;2.22;;;1.02;;
20417;SDS011;10368;51.436;6.774;2022-09-16T16:45:10;2.22;;;1.08;;
20417;SDS011;10368;51.436;6.774;2022-09-16T16:47:40;9.02;;;1.55;;
20417;SDS011;10368;51.436;6.774;2022-09-16T16:50:08;2.50;;;0.95;;
20417;SDS011;10368;51.436;6.774;2022-09-16T16:52:35;4.88;;;1.83;;
20417;SDS011;10368;51.436;6.774;2022-09-16T16:55:03;6.50;;;2.28;;
20417;SDS011;10368;51.436;6.774;2022-09-16T16:57:30;5.85;;;1.38;;
20417;SDS011;10368;51.436;6.774;2022-09-16T16:59:57;6.07;;;1.75;;
20417;SDS011;10368;51.436;6.774;2022-09-16T17:02:24;4.28;;;1.90;;
20417;SDS011;10368;51.436;6.774;2022-09-16T17:04:51;9.52;;;1.42;;
20417;SDS011;10368;51.436;6.774;2022-09-16T17:07:18;3.83;;;1.50;;
20417;SDS011;10368;51.436;6.774;2022-09-16T17:09:54;7.53;;;1.45;;
20417;SDS011;10368;51.436;6.774;2022-09-16T17:12:23;6.05;;;1.30;;
20417;SDS011;10368;51.436;6.774;2022-09-16T17:14:50;2.42;;;0.85;;
20417;SDS011;10368;51.436;6.774;2022-09-16T17:17:17;2.42;;;1.30;;
20417;SDS011;10368;51.436;6.774;2022-09-16T17:19:44;7.65;;;2.05;;
20417;SDS011;10368;51.436;6.774;2022-09-16T17:22:10;5.78;;;1.63;;
20417;SDS011;10368;51.436;6.774;2022-09-16T17:24:38;4.55;;;1.77;;
20417;SDS011;10368;51.436;6.774;2022-09-16T17:27:04;6.00;;;1.50;;
20417;SDS011;10368;51.436;6.774;2022-09-16T17:29:31;9.17;;;2.57;;
20417;SDS011;10368;51.436;6.774;2022-09-16T17:31:58;4.90;;;1.07;;
20417;SDS011;10368;51.436;6.774;2022-09-16T17:34:27;5.23;;;1.60;;
20417;SDS011;10368;51.436;6.774;2022-09-16T17:36:55;7.05;;;2.33;;
20417;SDS011;10368;51.436;6.774;2022-09-16T17:39:23;7.77;;;2.60;;
20417;SDS011;10368;51.436;6.774;2022-09-16T17:41:51;6.37;;;1.47;;
20417;SDS011;10368;51.436;6.774;2022-09-16T17:44:19;4.57;;;1.40;;
20417;SDS011;10368;51.436;6.774;2022-09-16T17:46:47;6.33;;;1.80;;
20417;SDS011;10368;51.436;6.774;2022-09-16T17:49:17;3.57;;;1.40;;
20417;SDS011;10368;51.436;6.774;2022-09-16T17:51:47;5.87;;;1.43;;
20417;SDS011;10368;51.436;6.774;2022-09-16T17:54:14;5.20;;;1.20;;
20417;SDS011;10368;51.436;6.774;2022-09-16T17:56:42;6.73;;;1.80;;
20417;SDS011;10368;51.436;6.774;2022-09-16T17:59:09;4.93;;;1.40;;
20417;SDS011;10368;51.436;6.774;2022-09-16T18:01:38;6.97;;;1.60;;
20417;SDS011;10368;51.436;6.774;2022-09-16T18:04:05;4.40;;;1.87;;
20417;SDS011;10368;51.436;6.774;2022-09-16T18:06:43;6.47;;;1.63;;
20417;SDS011;10368;51.436;6.774;2022-09-16T18:09:11;8.67;;;2.27;;
20417;SDS011;10368;51.436;6.774;2022-09-16T18:11:39;11.73;;;2.20;;
20417;SDS011;10368;51.436;6.774;2022-09-16T18:14:07;14.03;;;3.93;;